createdAt,value
2023-05-06T00:00:37.049Z,977.43
2023-05-06T00:01:36.971Z,977.44
2023-05-06T00:02:36.964Z,977.41
2023-05-06T00:03:36.945Z,977.42
2023-05-06T00:04:36.753Z,977.41
2023-05-06T00:05:36.674Z,977.38
2023-05-06T00:06:36.601Z,977.41
2023-05-06T00:07:36.505Z,977.43
2023-05-06T00:08:36.420Z,977.40
2023-05-06T00:09:36.351Z,977.41
2023-05-06T00:10:36.289Z,977.39
2023-05-06T00:11:36.184Z,977.37
2023-05-06T00:12:36.127Z,977.38
2023-05-06T00:13:36.040Z,977.37
2023-05-06T00:14:35.949Z,977.40
2023-05-06T00:15:35.908Z,977.41
2023-05-06T00:16:35.822Z,977.36
2023-05-06T00:17:35.733Z,977.37
2023-05-06T00:18:35.655Z,977.36
2023-05-06T00:19:35.563Z,977.37
2023-05-06T00:20:35.482Z,977.34
2023-05-06T00:21:35.408Z,977.31
2023-05-06T00:22:35.331Z,977.33
2023-05-06T00:23:35.254Z,977.31
2023-05-06T00:24:35.175Z,977.30
2023-05-06T00:25:35.096Z,977.33
2023-05-06T00:26:35.011Z,977.30
2023-05-06T00:27:34.937Z,977.34
2023-05-06T00:28:34.852Z,977.37
2023-05-06T00:29:34.776Z,977.35
2023-05-06T00:30:34.701Z,977.35
2023-05-06T00:31:34.699Z,977.36
2023-05-06T00:32:34.656Z,977.38
2023-05-06T00:33:34.471Z,977.38
2023-05-06T00:34:34.389Z,977.37
2023-05-06T00:35:34.307Z,977.37
2023-05-06T00:36:34.249Z,977.37
2023-05-06T00:37:34.166Z,977.36
2023-05-06T00:38:34.070Z,977.35
2023-05-06T00:39:33.999Z,977.33
2023-05-06T00:40:33.916Z,977.35
2023-05-06T00:41:33.841Z,977.32
2023-05-06T00:42:33.758Z,977.33
2023-05-06T00:43:33.688Z,977.30
2023-05-06T00:44:33.597Z,977.32
2023-05-06T00:45:33.577Z,977.26
2023-05-06T00:46:33.453Z,977.24
2023-05-06T00:47:33.380Z,977.27
2023-05-06T00:48:33.390Z,977.27
2023-05-06T00:49:33.208Z,977.30
2023-05-06T00:50:33.145Z,977.32
2023-05-06T00:51:33.053Z,977.29
2023-05-06T00:52:32.977Z,977.34
2023-05-06T00:53:32.913Z,977.34
2023-05-06T00:54:32.821Z,977.34
2023-05-06T00:55:32.744Z,977.37
2023-05-06T00:56:32.668Z,977.31
2023-05-06T00:57:32.586Z,977.32
2023-05-06T00:58:32.520Z,977.32
2023-05-06T00:59:32.435Z,977.32
2023-05-06T01:00:32.371Z,977.36
2023-05-06T01:01:32.307Z,977.34
2023-05-06T01:02:39.874Z,977.34
2023-05-06T01:03:32.227Z,977.35
2023-05-06T01:04:32.197Z,977.37
2023-05-06T01:05:31.956Z,977.32
2023-05-06T01:06:31.888Z,977.34
2023-05-06T01:07:31.801Z,977.30
2023-05-06T01:08:31.720Z,977.40
2023-05-06T01:09:31.648Z,977.40
2023-05-06T01:10:31.573Z,977.44
2023-05-06T01:11:31.489Z,977.43
2023-05-06T01:12:31.418Z,977.46
2023-05-06T01:13:31.341Z,977.46
2023-05-06T01:14:31.254Z,977.45
2023-05-06T01:15:31.177Z,977.42
2023-05-06T01:16:31.121Z,977.43
2023-05-06T01:17:31.044Z,977.43
2023-05-06T01:18:30.944Z,977.40
2023-05-06T01:19:30.870Z,977.38
2023-05-06T01:20:30.872Z,977.36
2023-05-06T01:21:30.713Z,977.38
2023-05-06T01:22:30.634Z,977.31
2023-05-06T01:23:30.554Z,977.31
2023-05-06T01:24:30.472Z,977.30
2023-05-06T01:25:30.409Z,977.30
2023-05-06T01:26:30.321Z,977.32
2023-05-06T01:27:30.240Z,977.29
2023-05-06T01:28:30.155Z,977.26
2023-05-06T01:29:30.088Z,977.26
2023-05-06T01:30:30.004Z,977.29
2023-05-06T01:31:29.956Z,977.26
2023-05-06T01:32:29.867Z,977.24
2023-05-06T01:33:29.774Z,977.24
2023-05-06T01:34:29.696Z,977.26
2023-05-06T01:35:29.618Z,977.24
2023-05-06T01:36:29.620Z,977.24
2023-05-06T01:37:29.454Z,977.24
2023-05-06T01:38:29.373Z,977.26
2023-05-06T01:39:29.308Z,977.25
2023-05-06T01:40:29.223Z,977.24
2023-05-06T01:41:29.141Z,977.24
2023-05-06T01:42:29.072Z,977.23
2023-05-06T01:43:28.982Z,977.25
2023-05-06T01:44:28.902Z,977.27
2023-05-06T01:45:28.858Z,977.29
2023-05-06T01:46:28.799Z,977.24
2023-05-06T01:47:28.676Z,977.28
2023-05-06T01:48:28.589Z,977.29
2023-05-06T01:49:28.512Z,977.26
2023-05-06T01:50:28.443Z,977.22
2023-05-06T01:51:28.360Z,977.22
2023-05-06T01:52:28.347Z,977.21
2023-05-06T01:53:28.202Z,977.22
2023-05-06T01:54:28.115Z,977.22
2023-05-06T01:55:28.036Z,977.28
2023-05-06T01:56:27.960Z,977.29
2023-05-06T01:57:27.890Z,977.28
2023-05-06T01:58:27.811Z,977.29
2023-05-06T01:59:28.936Z,977.28
2023-05-06T02:00:27.650Z,977.31
2023-05-06T02:01:27.627Z,977.29
2023-05-06T02:02:27.603Z,977.28
2023-05-06T02:03:27.490Z,977.25
2023-05-06T02:04:27.331Z,977.23
2023-05-06T02:05:27.265Z,977.24
2023-05-06T02:06:27.185Z,977.23
2023-05-06T02:07:27.099Z,977.20
2023-05-06T02:08:27.091Z,977.18
2023-05-06T02:09:26.938Z,977.16
2023-05-06T02:10:26.857Z,977.15
2023-05-06T02:11:26.784Z,977.12
2023-05-06T02:12:26.704Z,977.07
2023-05-06T02:13:26.631Z,977.04
2023-05-06T02:14:26.546Z,977.06
2023-05-06T02:15:26.476Z,977.08
2023-05-06T02:16:26.424Z,977.05
2023-05-06T02:17:26.341Z,977.09
2023-05-06T02:18:26.231Z,977.07
2023-05-06T02:19:26.157Z,977.07
2023-05-06T02:20:26.078Z,977.05
2023-05-06T02:21:25.996Z,977.08
2023-05-06T02:22:25.926Z,977.06
2023-05-06T02:23:25.845Z,977.02
2023-05-06T02:24:25.843Z,977.03
2023-05-06T02:25:25.681Z,977.04
2023-05-06T02:26:25.611Z,977.03
2023-05-06T02:27:25.531Z,977.03
2023-05-06T02:28:25.439Z,977.03
2023-05-06T02:29:25.365Z,977.05
2023-05-06T02:30:25.306Z,977.03
2023-05-06T02:31:25.225Z,977.02
2023-05-06T02:32:25.159Z,977.00
2023-05-06T02:33:25.051Z,977.02
2023-05-06T02:34:24.972Z,977.00
2023-05-06T02:35:24.891Z,976.99
2023-05-06T02:36:24.816Z,977.00
2023-05-06T02:37:24.739Z,977.02
2023-05-06T02:38:24.669Z,977.06
2023-05-06T02:39:24.580Z,977.07
2023-05-06T02:40:24.587Z,977.09
2023-05-06T02:41:24.427Z,977.07
2023-05-06T02:42:24.386Z,977.08
2023-05-06T02:43:24.267Z,977.06
2023-05-06T02:44:24.196Z,977.08
2023-05-06T02:45:24.105Z,977.11
2023-05-06T02:46:24.085Z,977.07
2023-05-06T02:47:23.968Z,977.05
2023-05-06T02:48:23.868Z,977.06
2023-05-06T02:49:23.793Z,977.06
2023-05-06T02:50:23.729Z,977.08
2023-05-06T02:51:23.636Z,977.09
2023-05-06T02:52:23.558Z,977.09
2023-05-06T02:53:23.472Z,977.09
2023-05-06T02:54:23.402Z,977.11
2023-05-06T02:55:23.318Z,977.05
2023-05-06T02:56:23.328Z,977.04
2023-05-06T02:57:23.163Z,977.05
2023-05-06T02:58:23.082Z,977.04
2023-05-06T02:59:22.999Z,977.01
2023-05-06T03:00:22.934Z,977.00
2023-05-06T03:01:22.897Z,976.99
2023-05-06T03:02:22.815Z,977.01
2023-05-06T03:03:22.696Z,976.97
2023-05-06T03:04:22.661Z,976.98
2023-05-06T03:05:22.530Z,976.99
2023-05-06T03:06:22.453Z,976.97
2023-05-06T03:07:22.382Z,976.96
2023-05-06T03:08:22.296Z,976.95
2023-05-06T03:09:22.231Z,976.97
2023-05-06T03:10:22.159Z,976.97
2023-05-06T03:11:22.066Z,976.96
2023-05-06T03:12:22.068Z,976.95
2023-05-06T03:13:22.044Z,976.96
2023-05-06T03:14:21.823Z,976.95
2023-05-06T03:15:21.785Z,977.01
2023-05-06T03:16:21.691Z,976.99
2023-05-06T03:17:21.590Z,976.98
2023-05-06T03:18:21.513Z,977.01
2023-05-06T03:19:21.424Z,977.03
2023-05-06T03:20:21.346Z,977.03
2023-05-06T03:21:21.315Z,977.02
2023-05-06T03:22:21.198Z,977.02
2023-05-06T03:23:21.135Z,977.02
2023-05-06T03:24:21.039Z,977.05
2023-05-06T03:25:20.964Z,977.01
2023-05-06T03:26:20.877Z,977.02
2023-05-06T03:27:20.799Z,977.04
2023-05-06T03:28:20.979Z,977.01
2023-05-06T03:29:20.642Z,977.01
2023-05-06T03:30:20.571Z,977.03
2023-05-06T03:31:20.514Z,977.04
2023-05-06T03:32:20.402Z,976.98
2023-05-06T03:33:20.324Z,977.01
2023-05-06T03:34:20.265Z,977.01
2023-05-06T03:35:20.171Z,977.04
2023-05-06T03:36:20.093Z,977.03
2023-05-06T03:37:20.028Z,977.05
2023-05-06T03:38:19.930Z,977.05
2023-05-06T03:39:19.858Z,977.07
2023-05-06T03:40:19.770Z,977.07
2023-05-06T03:41:19.694Z,977.05
2023-05-06T03:42:19.623Z,977.05
2023-05-06T03:43:19.539Z,977.06
2023-05-06T03:44:19.601Z,977.06
2023-05-06T03:45:19.383Z,977.03
2023-05-06T03:46:19.330Z,977.03
2023-05-06T03:47:19.225Z,977.03
2023-05-06T03:48:19.139Z,977.02
2023-05-06T03:49:19.070Z,977.01
2023-05-06T03:50:18.989Z,977.01
2023-05-06T03:51:18.907Z,977.00
2023-05-06T03:52:18.837Z,977.01
2023-05-06T03:53:18.747Z,976.97
2023-05-06T03:54:18.678Z,976.99
2023-05-06T03:55:18.588Z,976.99
2023-05-06T03:56:18.514Z,976.99
2023-05-06T03:57:18.433Z,977.06
2023-05-06T03:58:18.360Z,977.07
2023-05-06T03:59:18.271Z,977.08
2023-05-06T04:00:18.280Z,977.06
2023-05-06T04:01:18.166Z,977.09
2023-05-06T04:02:18.081Z,977.07
2023-05-06T04:03:18.037Z,977.08
2023-05-06T04:04:17.889Z,977.06
2023-05-06T04:05:17.806Z,977.07
2023-05-06T04:06:17.722Z,977.08
2023-05-06T04:07:17.641Z,977.11
2023-05-06T04:08:17.579Z,977.11
2023-05-06T04:09:17.482Z,977.10
2023-05-06T04:10:17.414Z,977.14
2023-05-06T04:11:17.327Z,977.12
2023-05-06T04:12:17.254Z,977.12
2023-05-06T04:13:17.242Z,977.13
2023-05-06T04:14:17.105Z,977.12
2023-05-06T04:15:17.010Z,977.10
2023-05-06T04:16:16.963Z,977.11
2023-05-06T04:17:16.853Z,977.07
2023-05-06T04:18:16.781Z,977.06
2023-05-06T04:19:16.699Z,977.06
2023-05-06T04:20:16.628Z,977.03
2023-05-06T04:21:16.552Z,977.04
2023-05-06T04:22:16.472Z,977.02
2023-05-06T04:23:16.385Z,977.09
2023-05-06T04:24:16.309Z,977.07
2023-05-06T04:25:16.222Z,977.08
2023-05-06T04:26:16.144Z,977.06
2023-05-06T04:27:16.074Z,977.07
2023-05-06T04:28:16.015Z,977.08
2023-05-06T04:29:15.914Z,977.07
2023-05-06T04:30:15.830Z,977.10
2023-05-06T04:31:15.783Z,977.10
2023-05-06T04:32:15.747Z,977.09
2023-05-06T04:33:15.591Z,977.11
2023-05-06T04:34:15.514Z,977.08
2023-05-06T04:35:15.437Z,977.12
2023-05-06T04:36:15.361Z,977.11
2023-05-06T04:37:15.305Z,977.11
2023-05-06T04:38:15.200Z,977.14
2023-05-06T04:39:15.121Z,977.13
2023-05-06T04:40:15.051Z,977.12
2023-05-06T04:41:14.966Z,977.12
2023-05-06T04:42:14.892Z,977.13
2023-05-06T04:43:14.809Z,977.17
2023-05-06T04:44:14.732Z,977.20
2023-05-06T04:45:14.649Z,977.19
2023-05-06T04:46:14.730Z,977.20
2023-05-06T04:47:14.489Z,977.20
2023-05-06T04:48:14.423Z,977.21
2023-05-06T04:49:14.334Z,977.16
2023-05-06T04:50:14.254Z,977.17
2023-05-06T04:51:14.181Z,977.22
2023-05-06T04:52:14.114Z,977.20
2023-05-06T04:53:14.024Z,977.20
2023-05-06T04:54:13.945Z,977.25
2023-05-06T04:55:13.866Z,977.23
2023-05-06T04:56:13.782Z,977.21
2023-05-06T04:57:13.704Z,977.23
2023-05-06T04:58:13.633Z,977.24
2023-05-06T04:59:13.551Z,977.27
2023-05-06T05:00:13.469Z,977.24
2023-05-06T05:01:13.425Z,977.29
2023-05-06T05:02:13.338Z,977.34
2023-05-06T05:03:13.397Z,977.35
2023-05-06T05:04:13.236Z,977.42
2023-05-06T05:05:13.087Z,977.46
2023-05-06T05:06:12.998Z,977.48
2023-05-06T05:07:12.912Z,977.45
2023-05-06T05:08:12.835Z,977.45
2023-05-06T05:09:12.760Z,977.45
2023-05-06T05:10:12.682Z,977.43
2023-05-06T05:11:12.611Z,977.44
2023-05-06T05:12:12.534Z,977.46
2023-05-06T05:13:12.479Z,977.46
2023-05-06T05:14:12.370Z,977.49
2023-05-06T05:15:12.413Z,977.52
2023-05-06T05:16:12.212Z,977.50
2023-05-06T05:17:12.221Z,977.52
2023-05-06T05:18:12.070Z,977.50
2023-05-06T05:19:11.978Z,977.52
2023-05-06T05:20:11.900Z,977.53
2023-05-06T05:21:11.823Z,977.55
2023-05-06T05:22:11.733Z,977.55
2023-05-06T05:23:11.661Z,977.55
2023-05-06T05:24:11.582Z,977.57
2023-05-06T05:25:11.556Z,977.60
2023-05-06T05:26:11.441Z,977.62
2023-05-06T05:27:11.351Z,977.61
2023-05-06T05:28:11.277Z,977.63
2023-05-06T05:29:11.215Z,977.60
2023-05-06T05:30:11.114Z,977.65
2023-05-06T05:31:11.055Z,977.64
2023-05-06T05:32:10.955Z,977.65
2023-05-06T05:33:10.907Z,977.68
2023-05-06T05:34:10.790Z,977.69
2023-05-06T05:35:10.973Z,977.66
2023-05-06T05:36:10.630Z,977.70
2023-05-06T05:37:10.550Z,977.71
2023-05-06T05:38:10.486Z,977.68
2023-05-06T05:39:10.397Z,977.74
2023-05-06T05:40:10.328Z,977.75
2023-05-06T05:41:10.241Z,977.75
2023-05-06T05:42:10.165Z,977.70
2023-05-06T05:43:10.086Z,977.69
2023-05-06T05:44:10.020Z,977.69
2023-05-06T05:45:10.110Z,977.65
2023-05-06T05:46:09.878Z,977.68
2023-05-06T05:47:09.770Z,977.68
2023-05-06T05:48:09.702Z,977.71
2023-05-06T05:49:09.609Z,977.70
2023-05-06T05:50:09.528Z,977.69
2023-05-06T05:51:09.450Z,977.69
2023-05-06T05:52:09.447Z,977.70
2023-05-06T05:53:09.310Z,977.65
2023-05-06T05:54:09.224Z,977.70
2023-05-06T05:55:09.328Z,977.72
2023-05-06T05:56:09.063Z,977.76
2023-05-06T05:57:08.987Z,977.77
2023-05-06T05:58:08.898Z,977.73
2023-05-06T05:59:08.826Z,977.77
2023-05-06T06:00:08.744Z,977.78
2023-05-06T06:01:08.665Z,977.74
2023-05-06T06:02:08.584Z,977.75
2023-05-06T06:03:08.625Z,977.74
2023-05-06T06:04:08.563Z,977.71
2023-05-06T06:05:08.557Z,977.71
2023-05-06T06:06:08.287Z,977.70
2023-05-06T06:07:08.202Z,977.74
2023-05-06T06:08:08.231Z,977.72
2023-05-06T06:09:08.031Z,977.74
2023-05-06T06:10:07.955Z,977.71
2023-05-06T06:11:07.882Z,977.71
2023-05-06T06:12:07.854Z,977.73
2023-05-06T06:13:07.826Z,977.73
2023-05-06T06:14:07.640Z,977.75
2023-05-06T06:15:07.771Z,977.78
2023-05-06T06:16:07.503Z,977.73
2023-05-06T06:17:07.404Z,977.77
2023-05-06T06:18:07.358Z,977.79
2023-05-06T06:19:07.258Z,977.81
2023-05-06T06:20:07.181Z,977.83
2023-05-06T06:21:07.094Z,977.80
2023-05-06T06:22:07.011Z,977.83
2023-05-06T06:23:06.932Z,977.82
2023-05-06T06:24:06.861Z,977.81
2023-05-06T06:25:06.779Z,977.82
2023-05-06T06:26:06.701Z,977.82
2023-05-06T06:27:06.618Z,977.83
2023-05-06T06:28:06.543Z,977.84
2023-05-06T06:29:06.471Z,977.83
2023-05-06T06:30:06.402Z,977.82
2023-05-06T06:31:06.302Z,977.86
2023-05-06T06:32:06.350Z,977.88
2023-05-06T06:33:06.193Z,977.89
2023-05-06T06:34:06.074Z,977.90
2023-05-06T06:35:06.000Z,977.90
2023-05-06T06:36:05.922Z,977.96
2023-05-06T06:37:07.419Z,977.96
2023-05-06T06:38:05.761Z,977.93
2023-05-06T06:39:05.682Z,977.94
2023-05-06T06:40:05.609Z,977.97
2023-05-06T06:41:05.530Z,977.96
2023-05-06T06:42:05.451Z,978.00
2023-05-06T06:43:05.384Z,978.00
2023-05-06T06:44:05.289Z,977.98
2023-05-06T06:45:05.218Z,978.03
2023-05-06T06:46:05.158Z,977.99
2023-05-06T06:47:05.054Z,977.99
2023-05-06T06:48:05.015Z,978.02
2023-05-06T06:49:04.909Z,977.98
2023-05-06T06:50:04.823Z,978.06
2023-05-06T06:51:04.744Z,978.04
2023-05-06T06:52:04.666Z,978.05
2023-05-06T06:53:06.349Z,978.08
2023-05-06T06:54:04.510Z,978.02
2023-05-06T06:55:04.449Z,978.01
2023-05-06T06:56:04.426Z,978.01
2023-05-06T06:57:04.278Z,977.99
2023-05-06T06:58:04.195Z,977.98
2023-05-06T06:59:04.128Z,978.00
2023-05-06T07:00:04.038Z,977.97
2023-05-06T07:01:04.004Z,977.96
2023-05-06T07:02:03.882Z,977.97
2023-05-06T07:03:03.853Z,977.96
2023-05-06T07:04:05.363Z,977.95
2023-05-06T07:05:03.654Z,977.94
2023-05-06T07:06:03.581Z,977.93
2023-05-06T07:07:03.494Z,977.96
2023-05-06T07:08:03.419Z,977.96
2023-05-06T07:09:03.346Z,977.97
2023-05-06T07:10:03.270Z,977.92
2023-05-06T07:11:03.201Z,978.01
2023-05-06T07:12:03.200Z,978.00
2023-05-06T07:13:03.057Z,977.99
2023-05-06T07:14:02.955Z,978.01
2023-05-06T07:15:02.880Z,978.03
2023-05-06T07:16:02.795Z,978.06
2023-05-06T07:17:02.757Z,978.03
2023-05-06T07:18:02.688Z,978.03
2023-05-06T07:19:02.560Z,978.05
2023-05-06T07:20:02.490Z,978.07
2023-05-06T07:21:02.405Z,978.05
2023-05-06T07:22:02.331Z,978.06
2023-05-06T07:23:02.256Z,978.02
2023-05-06T07:24:02.175Z,978.02
2023-05-06T07:25:02.097Z,978.01
2023-05-06T07:26:02.022Z,978.03
2023-05-06T07:27:01.960Z,978.04
2023-05-06T07:28:02.006Z,978.05
2023-05-06T07:29:01.796Z,978.04
2023-05-06T07:30:01.703Z,978.05
2023-05-06T07:31:01.700Z,978.08
2023-05-06T07:32:01.558Z,978.06
2023-05-06T07:33:01.607Z,978.09
2023-05-06T07:34:01.400Z,978.10
2023-05-06T07:35:01.388Z,978.11
2023-05-06T07:36:01.239Z,978.07
2023-05-06T07:37:01.177Z,978.13
2023-05-06T07:38:01.095Z,978.11
2023-05-06T07:39:01.029Z,978.14
2023-05-06T07:40:00.936Z,978.13
2023-05-06T07:41:00.860Z,978.13
2023-05-06T07:42:00.776Z,978.17
2023-05-06T07:43:00.697Z,978.20
2023-05-06T07:44:00.694Z,978.24
2023-05-06T07:45:00.623Z,978.20
2023-05-06T07:46:00.485Z,978.25
2023-05-06T07:47:00.488Z,978.26
2023-05-06T07:48:00.358Z,978.28
2023-05-06T07:49:00.242Z,978.26
2023-05-06T07:50:00.214Z,978.25
2023-05-06T07:51:00.104Z,978.23
2023-05-06T07:52:00.008Z,978.27
2023-05-06T07:52:59.929Z,978.26
2023-05-06T07:53:59.864Z,978.26
2023-05-06T07:54:59.786Z,978.30
2023-05-06T07:55:59.705Z,978.36
2023-05-06T07:56:59.625Z,978.36
2023-05-06T07:57:59.544Z,978.32
2023-05-06T07:58:59.473Z,978.31
2023-05-06T07:59:59.502Z,978.33
2023-05-06T08:00:59.315Z,978.33
2023-05-06T08:01:59.246Z,978.36
2023-05-06T08:02:59.211Z,978.30
2023-05-06T08:03:59.171Z,978.31
2023-05-06T08:04:59.004Z,978.36
2023-05-06T08:05:58.943Z,978.35
2023-05-06T08:06:58.856Z,978.34
2023-05-06T08:07:58.794Z,978.33
2023-05-06T08:08:58.704Z,978.34
2023-05-06T08:09:58.633Z,978.33
2023-05-06T08:10:58.544Z,978.34
2023-05-06T08:11:58.489Z,978.37
2023-05-06T08:12:58.535Z,978.36
2023-05-06T08:13:58.316Z,978.40
2023-05-06T08:14:58.245Z,978.37
2023-05-06T08:15:58.250Z,978.39
2023-05-06T08:16:58.111Z,978.40
2023-05-06T08:18:00.342Z,978.42
2023-05-06T08:18:57.942Z,978.44
2023-05-06T08:19:57.858Z,978.42
2023-05-06T08:20:57.787Z,978.45
2023-05-06T08:21:57.713Z,978.47
2023-05-06T08:22:57.629Z,978.49
2023-05-06T08:23:57.552Z,978.50
2023-05-06T08:24:57.503Z,978.48
2023-05-06T08:25:57.411Z,978.51
2023-05-06T08:26:57.328Z,978.49
2023-05-06T08:27:57.247Z,978.50
2023-05-06T08:28:57.168Z,978.52
2023-05-06T08:29:57.093Z,978.48
2023-05-06T08:30:57.028Z,978.48
2023-05-06T08:31:57.171Z,978.50
2023-05-06T08:32:56.913Z,978.48
2023-05-06T08:33:56.789Z,978.48
2023-05-06T08:34:56.712Z,978.50
2023-05-06T08:35:56.643Z,978.54
2023-05-06T08:36:56.564Z,978.55
2023-05-06T08:37:56.506Z,978.54
2023-05-06T08:38:56.443Z,978.53
2023-05-06T08:39:57.530Z,978.54
2023-05-06T08:40:56.258Z,978.53
2023-05-06T08:41:56.176Z,978.49
2023-05-06T08:42:56.125Z,978.51
2023-05-06T08:43:56.024Z,978.51
2023-05-06T08:44:55.950Z,978.50
2023-05-06T08:45:55.925Z,978.49
2023-05-06T08:46:55.798Z,978.53
2023-05-06T08:47:55.846Z,978.52
2023-05-06T08:48:55.650Z,978.52
2023-05-06T08:49:55.569Z,978.54
2023-05-06T08:50:55.522Z,978.57
2023-05-06T08:51:55.428Z,978.57
2023-05-06T08:52:55.349Z,978.56
2023-05-06T08:53:55.273Z,978.56
2023-05-06T08:54:55.206Z,978.53
2023-05-06T08:55:55.117Z,978.58
2023-05-06T08:56:55.041Z,978.54
2023-05-06T08:57:54.976Z,978.53
2023-05-06T08:58:54.887Z,978.53
2023-05-06T08:59:54.813Z,978.51
2023-05-06T09:00:54.790Z,978.53
2023-05-06T09:01:54.670Z,978.51
2023-05-06T09:02:54.701Z,978.54
2023-05-06T09:03:54.517Z,978.53
2023-05-06T09:04:54.434Z,978.55
2023-05-06T09:05:54.362Z,978.51
2023-05-06T09:06:54.289Z,978.51
2023-05-06T09:07:54.204Z,978.51
2023-05-06T09:08:54.157Z,978.51
2023-05-06T09:09:54.070Z,978.54
2023-05-06T09:10:53.990Z,978.51
2023-05-06T09:11:53.907Z,978.54
2023-05-06T09:12:53.922Z,978.53
2023-05-06T09:13:53.756Z,978.54
2023-05-06T09:14:53.680Z,978.56
2023-05-06T09:15:53.610Z,978.51
2023-05-06T09:16:53.671Z,978.51
2023-05-06T09:17:53.503Z,978.53
2023-05-06T09:18:53.378Z,978.50
2023-05-06T09:19:53.397Z,978.48
2023-05-06T09:20:53.235Z,978.48
2023-05-06T09:21:53.182Z,978.47
2023-05-06T09:22:53.078Z,978.52
2023-05-06T09:23:52.999Z,978.50
2023-05-06T09:24:52.926Z,978.52
2023-05-06T09:25:52.855Z,978.52
2023-05-06T09:26:52.775Z,978.50
2023-05-06T09:27:52.710Z,978.51
2023-05-06T09:28:52.638Z,978.54
2023-05-06T09:29:52.549Z,978.53
2023-05-06T09:30:52.551Z,978.49
2023-05-06T09:31:52.395Z,978.52
2023-05-06T09:32:52.339Z,978.52
2023-05-06T09:33:52.262Z,978.53
2023-05-06T09:34:52.172Z,978.52
2023-05-06T09:35:52.111Z,978.48
2023-05-06T09:36:52.022Z,978.51
2023-05-06T09:37:51.950Z,978.44
2023-05-06T09:38:51.872Z,978.45
2023-05-06T09:39:51.799Z,978.49
2023-05-06T09:40:51.727Z,978.46
2023-05-06T09:41:51.645Z,978.43
2023-05-06T09:42:51.619Z,978.42
2023-05-06T09:43:51.492Z,978.42
2023-05-06T09:44:51.419Z,978.44
2023-05-06T09:45:51.366Z,978.46
2023-05-06T09:46:51.278Z,978.42
2023-05-06T09:47:51.259Z,978.41
2023-05-06T09:48:51.122Z,978.40
2023-05-06T09:49:51.045Z,978.41
2023-05-06T09:50:50.973Z,978.40
2023-05-06T09:51:50.979Z,978.40
2023-05-06T09:52:50.852Z,978.43
2023-05-06T09:53:50.751Z,978.40
2023-05-06T09:54:50.674Z,978.46
2023-05-06T09:55:50.599Z,978.44
2023-05-06T09:56:50.531Z,978.46
2023-05-06T09:57:50.442Z,978.45
2023-05-06T09:58:50.380Z,978.44
2023-05-06T09:59:50.293Z,978.43
2023-05-06T10:00:50.229Z,978.42
2023-05-06T10:01:50.157Z,978.41
2023-05-06T10:02:50.252Z,978.38
2023-05-06T10:03:50.148Z,978.38
2023-05-06T10:04:50.237Z,978.42
2023-05-06T10:05:49.849Z,978.47
2023-05-06T10:06:49.778Z,978.45
2023-05-06T10:07:49.699Z,978.43
2023-05-06T10:08:49.636Z,978.39
2023-05-06T10:09:49.578Z,978.35
2023-05-06T10:10:49.478Z,978.36
2023-05-06T10:11:49.410Z,978.34
2023-05-06T10:12:49.361Z,978.31
2023-05-06T10:13:49.260Z,978.29
2023-05-06T10:14:49.201Z,978.26
2023-05-06T10:15:49.152Z,978.27
2023-05-06T10:16:49.027Z,978.25
2023-05-06T10:17:48.989Z,978.27
2023-05-06T10:18:48.876Z,978.31
2023-05-06T10:19:48.815Z,978.27
2023-05-06T10:20:48.746Z,978.25
2023-05-06T10:21:48.656Z,978.28
2023-05-06T10:22:48.608Z,978.23
2023-05-06T10:23:48.577Z,978.24
2023-05-06T10:24:48.435Z,978.27
2023-05-06T10:25:48.361Z,978.25
2023-05-06T10:26:48.305Z,978.24
2023-05-06T10:27:48.211Z,978.24
2023-05-06T10:28:48.137Z,978.23
2023-05-06T10:29:48.060Z,978.22
2023-05-06T10:30:47.989Z,978.19
2023-05-06T10:31:48.011Z,978.19
2023-05-06T10:32:47.875Z,978.16
2023-05-06T10:33:47.766Z,978.20
2023-05-06T10:34:47.692Z,978.16
2023-05-06T10:35:47.615Z,978.15
2023-05-06T10:36:47.537Z,978.17
2023-05-06T10:37:47.466Z,978.10
2023-05-06T10:38:47.405Z,978.13
2023-05-06T10:39:47.464Z,978.10
2023-05-06T10:40:47.251Z,978.13
2023-05-06T10:41:47.168Z,978.09
2023-05-06T10:42:47.093Z,978.11
2023-05-06T10:43:47.024Z,978.11
2023-05-06T10:44:46.952Z,978.08
2023-05-06T10:45:46.904Z,978.07
2023-05-06T10:46:46.804Z,978.07
2023-05-06T10:47:46.765Z,978.03
2023-05-06T10:48:46.652Z,978.04
2023-05-06T10:49:46.576Z,978.04
2023-05-06T10:50:46.932Z,978.02
2023-05-06T10:51:46.484Z,978.04
2023-05-06T10:52:46.367Z,978.00
2023-05-06T10:53:46.284Z,978.01
2023-05-06T10:54:46.211Z,978.02
2023-05-06T10:55:46.231Z,978.04
2023-05-06T10:56:46.438Z,978.03
2023-05-06T10:57:45.986Z,978.04
2023-05-06T10:58:45.907Z,978.05
2023-05-06T10:59:45.844Z,978.05
2023-05-06T11:00:45.820Z,978.05
2023-05-06T11:01:45.687Z,978.10
2023-05-06T11:02:47.489Z,978.06
2023-05-06T11:03:45.555Z,978.08
2023-05-06T11:04:45.463Z,978.04
2023-05-06T11:05:45.416Z,978.02
2023-05-06T11:06:45.317Z,977.95
2023-05-06T11:07:45.245Z,977.97
2023-05-06T11:08:46.628Z,977.97
2023-05-06T11:09:45.104Z,978.04
2023-05-06T11:10:45.018Z,978.00
2023-05-06T11:11:45.033Z,977.99
2023-05-06T11:12:44.947Z,978.02
2023-05-06T11:13:44.807Z,978.06
2023-05-06T11:14:44.730Z,978.06
2023-05-06T11:15:44.662Z,978.07
2023-05-06T11:16:44.630Z,978.06
2023-05-06T11:17:44.517Z,978.06
2023-05-06T11:18:44.439Z,978.06
2023-05-06T11:19:44.355Z,978.09
2023-05-06T11:20:44.284Z,978.08
2023-05-06T11:21:44.218Z,978.08
2023-05-06T11:22:44.137Z,978.08
2023-05-06T11:23:44.061Z,978.10
2023-05-06T11:24:43.993Z,978.10
2023-05-06T11:25:43.939Z,978.07
2023-05-06T11:26:43.857Z,978.10
2023-05-06T11:27:43.843Z,978.13
2023-05-06T11:28:43.723Z,978.13
2023-05-06T11:29:43.637Z,978.14
2023-05-06T11:30:43.581Z,978.13
2023-05-06T11:31:43.463Z,978.10
2023-05-06T11:32:43.429Z,978.06
2023-05-06T11:33:43.322Z,978.12
2023-05-06T11:34:43.251Z,978.09
2023-05-06T11:35:43.165Z,978.11
2023-05-06T11:36:43.096Z,978.11
2023-05-06T11:37:43.093Z,978.10
2023-05-06T11:38:42.961Z,978.08
2023-05-06T11:39:42.883Z,978.08
2023-05-06T11:40:42.876Z,978.05
2023-05-06T11:41:42.751Z,978.08
2023-05-06T11:42:42.668Z,978.09
2023-05-06T11:43:42.617Z,978.07
2023-05-06T11:44:42.507Z,978.11
2023-05-06T11:45:42.431Z,978.07
2023-05-06T11:46:42.520Z,978.06
2023-05-06T11:47:42.297Z,978.06
2023-05-06T11:48:42.205Z,978.09
2023-05-06T11:49:42.145Z,978.06
2023-05-06T11:50:42.063Z,978.05
2023-05-06T11:51:41.997Z,978.04
2023-05-06T11:52:41.919Z,978.05
2023-05-06T11:53:41.838Z,978.01
2023-05-06T11:54:41.856Z,978.00
2023-05-06T11:55:41.699Z,978.00
2023-05-06T11:56:41.628Z,977.99
2023-05-06T11:57:41.547Z,978.00
2023-05-06T11:58:41.471Z,978.01
2023-05-06T11:59:41.396Z,978.00
2023-05-06T12:00:41.317Z,977.97
2023-05-06T12:01:41.253Z,977.98
2023-05-06T12:02:41.241Z,977.98
2023-05-06T12:03:41.218Z,978.00
2023-05-06T12:04:41.068Z,977.97
2023-05-06T12:05:40.953Z,977.98
2023-05-06T12:06:40.884Z,977.92
2023-05-06T12:07:40.809Z,977.96
2023-05-06T12:08:40.733Z,977.98
2023-05-06T12:09:40.661Z,978.00
2023-05-06T12:10:40.584Z,978.01
2023-05-06T12:11:41.568Z,978.01
2023-05-06T12:12:40.471Z,978.00
2023-05-06T12:13:40.365Z,978.00
2023-05-06T12:14:40.304Z,978.03
2023-05-06T12:15:40.291Z,977.97
2023-05-06T12:16:40.256Z,978.02
2023-05-06T12:17:40.145Z,978.04
2023-05-06T12:18:40.000Z,978.03
2023-05-06T12:19:39.931Z,978.03
2023-05-06T12:20:39.871Z,978.01
2023-05-06T12:21:39.779Z,978.02
2023-05-06T12:22:39.708Z,978.00
2023-05-06T12:23:39.707Z,978.01
2023-05-06T12:24:39.557Z,978.02
2023-05-06T12:25:39.480Z,978.02
2023-05-06T12:26:39.412Z,978.03
2023-05-06T12:27:39.337Z,978.01